createdAt,value
2023-05-02T00:00:45.411Z,11.98
2023-05-02T00:03:12.985Z,11.93
2023-05-02T00:05:40.695Z,11.89
2023-05-02T00:08:08.257Z,11.87
2023-05-02T00:10:35.715Z,11.83
2023-05-02T00:13:04.626Z,11.82
2023-05-02T00:15:32.200Z,11.82
2023-05-02T00:18:00.342Z,11.84
2023-05-02T00:20:28.002Z,11.83
2023-05-02T00:22:56.369Z,11.80
2023-05-02T00:25:23.878Z,11.80
2023-05-02T00:27:51.665Z,11.79
2023-05-02T00:30:21.266Z,11.80
2023-05-02T00:32:48.807Z,11.80
2023-05-02T00:35:16.286Z,11.81
2023-05-02T00:37:43.731Z,11.80
2023-05-02T00:40:11.654Z,11.81
2023-05-02T00:42:39.169Z,11.83
2023-05-02T00:45:07.180Z,11.80
2023-05-02T00:47:36.200Z,11.82
2023-05-02T00:50:05.493Z,11.81
2023-05-02T00:52:32.959Z,11.79
2023-05-02T00:55:00.752Z,11.79
2023-05-02T00:57:28.261Z,11.78
2023-05-02T00:59:55.790Z,11.78
2023-05-02T01:05:22.675Z,11.79
2023-05-02T01:07:55.632Z,11.79
2023-05-02T01:10:25.048Z,11.79
2023-05-02T01:12:55.678Z,11.79
2023-05-02T01:15:23.788Z,11.78
2023-05-02T01:17:51.915Z,11.78
2023-05-02T01:20:20.819Z,11.78
2023-05-02T01:22:48.349Z,11.78
2023-05-02T01:25:20.428Z,11.80
2023-05-02T01:27:49.301Z,11.77
2023-05-02T01:30:19.011Z,11.76
2023-05-02T01:32:46.903Z,11.76
2023-05-02T01:35:15.222Z,11.74
2023-05-02T01:37:42.682Z,11.74
2023-05-02T01:40:10.634Z,11.75
2023-05-02T01:42:38.234Z,11.74
2023-05-02T01:45:06.183Z,11.73
2023-05-02T01:47:36.721Z,11.72
2023-05-02T01:50:04.684Z,11.73
2023-05-02T01:52:32.148Z,11.71
2023-05-02T01:54:59.753Z,11.69
2023-05-02T01:57:27.299Z,11.68
2023-05-02T01:59:54.794Z,11.67
2023-05-02T02:02:22.347Z,11.67
2023-05-02T02:04:51.337Z,11.66
2023-05-02T02:07:18.860Z,11.64
2023-05-02T02:09:46.334Z,11.61
2023-05-02T02:12:14.271Z,11.60
2023-05-02T02:14:43.063Z,11.58
2023-05-02T02:17:13.335Z,11.56
2023-05-02T02:19:41.135Z,11.53
2023-05-02T02:22:10.059Z,11.50
2023-05-02T02:24:37.782Z,11.46
2023-05-02T02:27:05.348Z,11.44
2023-05-02T02:29:32.852Z,11.43
2023-05-02T02:32:00.346Z,11.37
2023-05-02T02:34:27.921Z,11.34
2023-05-02T02:36:56.734Z,11.32
2023-05-02T02:39:29.475Z,11.28
2023-05-02T02:42:00.436Z,11.25
2023-05-02T02:44:29.583Z,11.26
2023-05-02T02:47:01.618Z,11.23
2023-05-02T02:49:32.754Z,11.22
2023-05-02T02:52:03.599Z,11.22
2023-05-02T02:54:33.365Z,11.20
2023-05-02T02:57:03.254Z,11.20
2023-05-02T02:59:31.305Z,11.20
2023-05-02T03:02:02.650Z,11.18
2023-05-02T03:04:30.937Z,11.16
2023-05-02T03:06:58.444Z,11.14
2023-05-02T03:09:28.109Z,11.12
2023-05-02T03:11:57.012Z,11.13
2023-05-02T03:14:24.679Z,11.14
2023-05-02T03:16:52.188Z,11.12
2023-05-02T03:19:19.602Z,11.13
2023-05-02T03:21:47.183Z,11.13
2023-05-02T03:24:17.792Z,11.12
2023-05-02T03:26:47.044Z,11.11
2023-05-02T03:29:15.973Z,11.11
2023-05-02T03:31:43.506Z,11.12
2023-05-02T03:34:11.016Z,11.13
2023-05-02T03:36:38.561Z,11.14
2023-05-02T03:39:06.639Z,11.12
2023-05-02T03:41:34.104Z,11.11
2023-05-02T03:44:01.679Z,11.11
2023-05-02T03:46:30.790Z,11.09
2023-05-02T03:48:58.666Z,11.07
2023-05-02T03:51:26.687Z,11.05
2023-05-02T03:53:54.775Z,11.05
2023-05-02T03:56:22.310Z,11.04
2023-05-02T03:58:49.866Z,11.03
2023-05-02T04:01:17.564Z,11.01
2023-05-02T04:03:46.825Z,10.99
2023-05-02T04:06:14.667Z,10.99
2023-05-02T04:08:42.526Z,11.00
2023-05-02T04:11:10.076Z,11.01
2023-05-02T04:13:37.575Z,11.00
2023-05-02T04:16:05.572Z,11.00
2023-05-02T04:18:33.080Z,10.99
2023-05-02T04:21:02.237Z,10.96
2023-05-02T04:23:29.711Z,10.93
2023-05-02T04:25:57.217Z,10.87
2023-05-02T04:28:24.748Z,10.82
2023-05-02T04:30:52.414Z,10.79
2023-05-02T04:33:19.950Z,10.73
2023-05-02T04:35:47.472Z,10.70
2023-05-02T04:38:16.425Z,10.67
2023-05-02T04:40:44.266Z,10.63
2023-05-02T04:43:11.858Z,10.57
2023-05-02T04:45:39.417Z,10.51
2023-05-02T04:48:07.248Z,10.45
2023-05-02T04:50:34.763Z,10.36
2023-05-02T04:53:02.581Z,10.30
2023-05-02T04:55:31.523Z,10.22
2023-05-02T04:57:59.264Z,10.16
2023-05-02T05:00:26.742Z,10.11
2023-05-02T05:02:54.367Z,10.10
2023-05-02T05:05:21.977Z,10.10
2023-05-02T05:07:49.444Z,10.08
2023-05-02T05:10:16.959Z,10.05
2023-05-02T05:12:46.295Z,10.02
2023-05-02T05:15:13.803Z,10.03
2023-05-02T05:17:41.959Z,10.03
2023-05-02T05:20:10.189Z,9.98
2023-05-02T05:22:39.615Z,9.94
2023-05-02T05:25:07.559Z,9.84
2023-05-02T05:27:35.091Z,9.74
2023-05-02T05:30:04.129Z,9.65
2023-05-02T05:32:31.663Z,9.55
2023-05-02T05:34:59.179Z,9.51
2023-05-02T05:37:26.762Z,9.48
2023-05-02T05:39:54.217Z,9.46
2023-05-02T05:42:21.692Z,9.45
2023-05-02T05:44:49.240Z,9.41
2023-05-02T05:47:22.038Z,9.39
2023-05-02T05:49:49.790Z,9.38
2023-05-02T05:52:17.263Z,9.35
2023-05-02T05:54:44.788Z,9.33
2023-05-02T05:57:12.287Z,9.29
2023-05-02T05:59:39.773Z,9.27
2023-05-02T06:02:07.559Z,9.26
2023-05-02T06:04:36.560Z,9.23
2023-05-02T06:07:04.057Z,9.21
2023-05-02T06:09:31.531Z,9.17
2023-05-02T06:11:58.989Z,9.16
2023-05-02T06:14:26.741Z,9.16
2023-05-02T06:16:54.246Z,9.17
2023-05-02T06:19:21.709Z,9.18
2023-05-02T06:21:50.609Z,9.21
2023-05-02T06:24:18.136Z,9.22
2023-05-02T06:26:46.268Z,9.21
2023-05-02T06:29:13.782Z,9.22
2023-05-02T06:31:41.297Z,9.23
2023-05-02T06:34:09.069Z,9.26
2023-05-02T06:36:36.623Z,9.27
2023-05-02T06:39:05.569Z,9.26
2023-05-02T06:41:33.128Z,9.28
2023-05-02T06:44:00.767Z,9.29
2023-05-02T06:46:30.052Z,9.31
2023-05-02T06:49:00.628Z,9.32
2023-05-02T06:51:28.259Z,9.32
2023-05-02T06:53:55.808Z,9.33
2023-05-02T06:56:25.533Z,9.33
2023-05-02T06:58:53.009Z,9.34
2023-05-02T07:01:20.600Z,9.32
2023-05-02T07:03:48.365Z,9.32
2023-05-02T07:06:16.118Z,9.33
2023-05-02T07:08:43.623Z,9.34
2023-05-02T07:11:11.119Z,9.35
2023-05-02T07:13:39.991Z,9.38
2023-05-02T07:16:08.115Z,9.39
2023-05-02T07:18:36.491Z,9.40
2023-05-02T07:21:03.978Z,9.41
2023-05-02T07:23:31.551Z,9.44
2023-05-02T07:25:59.003Z,9.44
2023-05-02T07:28:26.468Z,9.47
2023-05-02T07:30:55.352Z,9.53
2023-05-02T07:33:23.795Z,9.56
2023-05-02T07:35:51.378Z,9.59
2023-05-02T07:38:19.235Z,9.60
2023-05-02T07:40:47.046Z,9.61
2023-05-02T07:43:15.925Z,9.63
2023-05-02T07:45:43.420Z,9.65
2023-05-02T07:48:12.461Z,9.69
2023-05-02T07:50:39.949Z,9.71
2023-05-02T07:53:07.867Z,9.70
2023-05-02T07:55:35.422Z,9.69
2023-05-02T07:58:03.297Z,9.71
2023-05-02T08:00:33.841Z,9.74
2023-05-02T08:03:01.530Z,9.75
2023-05-02T08:05:30.538Z,9.75
2023-05-02T08:07:58.177Z,9.75
2023-05-02T08:10:25.690Z,9.76
2023-05-02T08:12:53.205Z,9.78
2023-05-02T08:15:20.856Z,9.81
2023-05-02T08:17:48.327Z,9.83
2023-05-02T08:20:15.836Z,9.87
2023-05-02T08:22:44.769Z,9.90
2023-05-02T08:25:12.261Z,9.91
2023-05-02T08:27:39.795Z,9.92
2023-05-02T08:30:09.013Z,9.90
2023-05-02T08:32:36.950Z,9.86
2023-05-02T08:35:04.646Z,9.84
2023-05-02T08:37:32.349Z,9.82
2023-05-02T08:40:01.613Z,9.80
2023-05-02T08:42:29.511Z,9.80
2023-05-02T08:44:57.054Z,9.77
2023-05-02T08:47:24.803Z,9.77
2023-05-02T08:49:52.562Z,9.78
2023-05-02T08:52:20.582Z,9.80
2023-05-02T08:54:48.029Z,9.85
2023-05-02T08:57:16.915Z,9.93
2023-05-02T08:59:44.379Z,9.99
2023-05-02T09:02:13.907Z,10.07
2023-05-02T09:04:44.000Z,10.15
2023-05-02T09:07:11.648Z,10.19
2023-05-02T09:09:39.161Z,10.23
2023-05-02T09:12:06.852Z,10.25
2023-05-02T09:14:35.860Z,10.25
2023-05-02T09:17:03.436Z,10.24
2023-05-02T09:19:31.216Z,10.24
2023-05-02T09:22:02.276Z,10.24
2023-05-02T09:24:29.936Z,10.26
2023-05-02T09:26:58.210Z,10.29
2023-05-02T09:29:25.885Z,10.33
2023-05-02T09:31:56.593Z,10.37
2023-05-02T09:34:24.567Z,10.39
2023-05-02T09:36:54.726Z,10.39
2023-05-02T09:39:25.506Z,10.40
2023-05-02T09:41:54.165Z,10.44
2023-05-02T09:44:23.700Z,10.46
2023-05-02T09:46:52.003Z,10.49
2023-05-02T09:49:21.191Z,10.49
2023-05-02T09:51:48.864Z,10.50
2023-05-02T09:54:16.874Z,10.49
2023-05-02T09:56:54.217Z,10.50
2023-05-02T09:59:21.709Z,10.51
2023-05-02T10:01:55.046Z,10.53
2023-05-02T10:04:24.156Z,10.52
2023-05-02T10:06:51.829Z,10.52
2023-05-02T10:09:22.185Z,10.52
2023-05-02T10:11:55.281Z,10.53
2023-05-02T10:14:27.808Z,10.53
2023-05-02T10:17:00.986Z,10.55
2023-05-02T10:19:31.134Z,10.55
2023-05-02T10:21:59.452Z,10.55
2023-05-02T10:24:26.994Z,10.51
2023-05-02T10:26:54.474Z,10.49
2023-05-02T10:29:21.997Z,10.49
2023-05-02T10:31:49.464Z,10.50
2023-05-02T10:34:17.112Z,10.52
2023-05-02T10:36:45.967Z,10.51
2023-05-02T10:39:13.455Z,10.48
2023-05-02T10:41:41.252Z,10.49
2023-05-02T10:44:08.781Z,10.51
2023-05-02T10:46:36.664Z,10.53
2023-05-02T10:49:05.033Z,10.56
2023-05-02T10:51:33.784Z,10.58
2023-05-02T10:54:21.683Z,10.64
2023-05-02T10:57:05.990Z,10.68
2023-05-02T10:59:34.649Z,10.71
2023-05-02T11:02:03.537Z,10.71
2023-05-02T11:04:51.701Z,10.74
2023-05-02T11:07:19.763Z,10.75
2023-05-02T11:09:48.671Z,10.78
2023-05-02T11:12:31.011Z,10.82
2023-05-02T11:14:59.375Z,10.86
2023-05-02T11:17:27.052Z,10.88
2023-05-02T11:20:27.530Z,10.86
2023-05-02T11:22:55.747Z,10.84
2023-05-02T11:25:34.339Z,10.83
2023-05-02T11:28:02.151Z,10.85
2023-05-02T11:30:43.642Z,10.93
2023-05-02T11:33:17.179Z,10.97
2023-05-02T11:35:48.759Z,10.99
2023-05-02T11:38:17.206Z,11.00
2023-05-02T11:40:53.027Z,11.00
2023-05-02T11:43:21.456Z,10.96
2023-05-02T11:45:49.103Z,10.95
2023-05-02T11:48:17.534Z,10.92
2023-05-02T11:50:49.541Z,10.90
2023-05-02T11:53:18.654Z,10.90
2023-05-02T11:55:46.917Z,10.91
2023-05-02T11:58:16.785Z,10.91
2023-05-02T12:00:46.868Z,10.95
2023-05-02T12:03:30.536Z,10.98
2023-05-02T12:05:58.556Z,11.04
2023-05-02T12:08:27.434Z,11.16
2023-05-02T12:10:55.336Z,11.26
2023-05-02T12:13:24.755Z,11.34
2023-05-02T12:15:53.249Z,11.34
2023-05-02T12:18:23.422Z,11.34
2023-05-02T12:20:51.878Z,11.32
2023-05-02T12:23:19.691Z,11.34
2023-05-02T12:25:47.245Z,11.35
2023-05-02T12:28:14.764Z,11.35
2023-05-02T12:30:43.966Z,11.41
2023-05-02T12:33:11.502Z,11.50
2023-05-02T12:35:39.102Z,11.57
2023-05-02T12:38:13.391Z,11.64
2023-05-02T12:40:47.177Z,11.65
2023-05-02T12:43:14.697Z,11.63
2023-05-02T12:45:43.858Z,11.62
2023-05-02T12:48:21.620Z,11.60
2023-05-02T12:50:49.357Z,11.57
2023-05-02T12:53:16.838Z,11.53
2023-05-02T12:55:44.807Z,11.52
2023-05-02T12:58:13.281Z,11.52
2023-05-02T13:00:49.597Z,11.58
2023-05-02T13:03:19.752Z,11.63
2023-05-02T13:05:47.353Z,11.68
2023-05-02T13:08:14.907Z,11.67
2023-05-02T13:10:42.418Z,11.67
2023-05-02T13:13:09.866Z,11.65
2023-05-02T13:15:37.395Z,11.64
2023-05-02T13:18:05.097Z,11.65
2023-05-02T13:20:34.016Z,11.70
2023-05-02T13:23:01.482Z,11.78
2023-05-02T13:25:29.024Z,11.85
2023-05-02T13:27:56.547Z,11.86
2023-05-02T13:30:24.130Z,11.87
2023-05-02T13:32:51.651Z,11.93
2023-05-02T13:35:19.378Z,12.03
2023-05-02T13:37:48.304Z,12.12
2023-05-02T13:40:15.957Z,12.19
2023-05-02T13:42:43.504Z,12.23
2023-05-02T13:45:11.532Z,12.26
2023-05-02T13:47:40.194Z,12.28
2023-05-02T13:50:09.556Z,12.36
2023-05-02T13:52:37.070Z,12.40
2023-05-02T13:55:06.821Z,12.40
2023-05-02T13:57:34.395Z,12.41
2023-05-02T14:00:02.118Z,12.43
2023-05-02T14:02:30.018Z,12.46
2023-05-02T14:04:57.649Z,12.44
2023-05-02T14:07:25.178Z,12.43
2023-05-02T14:09:52.660Z,12.41
2023-05-02T14:12:21.786Z,12.40
2023-05-02T14:14:49.421Z,12.33
2023-05-02T14:17:16.957Z,12.27
2023-05-02T14:19:44.441Z,12.24
2023-05-02T14:22:12.003Z,12.29
2023-05-02T14:24:39.550Z,12.39
2023-05-02T14:27:07.692Z,12.51
2023-05-02T14:29:36.680Z,12.64
2023-05-02T14:32:04.434Z,12.67
2023-05-02T14:34:31.969Z,12.72
2023-05-02T14:36:59.409Z,12.74
2023-05-02T14:39:27.630Z,12.73
2023-05-02T14:41:55.155Z,12.68
2023-05-02T14:44:22.662Z,12.67
2023-05-02T14:46:55.147Z,12.65
2023-05-02T14:49:22.649Z,12.59
2023-05-02T14:51:50.297Z,12.54
2023-05-02T14:54:17.891Z,12.49
2023-05-02T14:56:45.498Z,12.50
2023-05-02T14:59:12.999Z,12.49
2023-05-02T15:01:40.600Z,12.48
2023-05-02T15:04:09.881Z,12.47
2023-05-02T15:06:38.206Z,12.49
2023-05-02T15:09:05.964Z,12.58
2023-05-02T15:11:33.498Z,12.71
2023-05-02T15:14:01.041Z,12.88
2023-05-02T15:16:28.608Z,12.94
2023-05-02T15:18:56.413Z,12.95
2023-05-02T15:21:25.416Z,12.93
2023-05-02T15:23:53.022Z,12.90
2023-05-02T15:26:21.313Z,12.91
2023-05-02T15:28:48.861Z,12.96
2023-05-02T15:31:16.327Z,12.96
2023-05-02T15:33:43.838Z,13.01
2023-05-02T15:36:11.398Z,13.09
2023-05-02T15:38:42.678Z,13.11
2023-05-02T15:41:10.661Z,13.03
2023-05-02T15:43:38.350Z,12.93
2023-05-02T15:46:05.941Z,12.90
2023-05-02T15:48:34.877Z,12.84
2023-05-02T15:51:02.725Z,12.76
2023-05-02T15:53:30.452Z,12.68
2023-05-02T15:55:59.322Z,12.60
2023-05-02T15:58:26.847Z,12.51
2023-05-02T16:00:55.892Z,12.43
2023-05-02T16:03:23.635Z,12.33
2023-05-02T16:05:52.925Z,12.25
2023-05-02T16:08:20.633Z,12.21
2023-05-02T16:10:48.203Z,12.17
2023-05-02T16:13:17.175Z,12.15
2023-05-02T16:15:44.777Z,12.18
2023-05-02T16:18:12.476Z,12.25
2023-05-02T16:20:40.060Z,12.27
2023-05-02T16:23:07.591Z,12.24
2023-05-02T16:25:35.098Z,12.22
2023-05-02T16:28:02.882Z,12.18
2023-05-02T16:30:31.836Z,12.12
2023-05-02T16:32:59.444Z,12.09
2023-05-02T16:35:27.077Z,12.04
2023-05-02T16:37:54.606Z,12.01
2023-05-02T16:40:22.228Z,12.00
2023-05-02T16:42:49.778Z,11.98
2023-05-02T16:45:17.304Z,11.96
2023-05-02T16:47:46.605Z,11.91
2023-05-02T16:50:14.242Z,11.89
2023-05-02T16:52:41.790Z,11.89
2023-05-02T16:55:09.355Z,11.91
2023-05-02T16:57:36.851Z,11.96
2023-05-02T17:00:05.424Z,12.01
2023-05-02T17:02:33.322Z,12.03
2023-05-02T17:05:02.394Z,12.11
2023-05-02T17:07:29.887Z,12.20
2023-05-02T17:09:57.459Z,12.28
2023-05-02T17:12:25.760Z,12.33
2023-05-02T17:14:53.452Z,12.39
2023-05-02T17:17:23.377Z,12.44
2023-05-02T17:19:51.332Z,12.47
2023-05-02T17:22:20.613Z,12.48
2023-05-02T17:24:49.476Z,12.46
2023-05-02T17:27:17.149Z,12.41
2023-05-02T17:29:44.635Z,12.39
2023-05-02T17:32:14.672Z,12.35
2023-05-02T17:34:43.031Z,12.31
2023-05-02T17:37:10.644Z,12.27
2023-05-02T17:39:39.476Z,12.27
2023-05-02T17:42:07.075Z,12.27
2023-05-02T17:44:36.120Z,12.27
2023-05-02T17:47:03.705Z,12.23
2023-05-02T17:49:31.188Z,12.18
2023-05-02T17:51:58.649Z,12.12
2023-05-02T17:54:26.171Z,12.03
2023-05-02T17:56:55.515Z,11.97
2023-05-02T17:59:23.023Z,11.92
2023-05-02T18:01:51.111Z,11.88
2023-05-02T18:04:19.177Z,11.83
2023-05-02T18:06:46.818Z,11.85
2023-05-02T18:09:14.297Z,11.87
2023-05-02T18:11:41.921Z,11.88
2023-05-02T18:14:10.799Z,11.83
2023-05-02T18:16:38.766Z,11.78
2023-05-02T18:19:06.234Z,11.74
2023-05-02T18:21:35.517Z,11.72
2023-05-02T18:24:02.972Z,11.66
2023-05-02T18:26:30.975Z,11.62
2023-05-02T18:28:58.485Z,11.60
2023-05-02T18:31:27.512Z,11.56
2023-05-02T18:33:55.085Z,11.54
2023-05-02T18:36:25.008Z,11.52
2023-05-02T18:38:52.508Z,11.48
2023-05-02T18:41:20.026Z,11.46
2023-05-02T18:43:47.609Z,11.44
2023-05-02T18:46:15.206Z,11.43
2023-05-02T18:48:44.058Z,11.40
2023-05-02T18:51:11.600Z,11.36
2023-05-02T18:53:39.327Z,11.33
2023-05-02T18:56:12.498Z,11.30
2023-05-02T18:58:40.058Z,11.26
2023-05-02T19:01:12.420Z,11.23
2023-05-02T19:03:39.987Z,11.21
2023-05-02T19:06:09.013Z,11.19
2023-05-02T19:08:36.505Z,11.17
2023-05-02T19:11:04.604Z,11.13
2023-05-02T19:13:32.481Z,11.11
2023-05-02T19:16:00.909Z,11.11
2023-05-02T19:18:28.403Z,11.11
2023-05-02T19:20:55.893Z,11.10
2023-05-02T19:23:25.649Z,11.09
2023-05-02T19:25:53.182Z,11.07
2023-05-02T19:28:20.933Z,11.06
2023-05-02T19:30:48.379Z,11.06
2023-05-02T19:33:15.863Z,11.05
2023-05-02T19:35:43.387Z,11.03
2023-05-02T19:38:10.876Z,11.00
2023-05-02T19:40:39.780Z,10.97
2023-05-02T19:43:07.270Z,10.93
2023-05-02T19:45:35.145Z,10.89
2023-05-02T19:48:02.759Z,10.82
2023-05-02T19:50:30.284Z,10.78
2023-05-02T19:52:57.992Z,10.76
2023-05-02T19:55:25.471Z,10.73
2023-05-02T19:57:54.373Z,10.69
2023-05-02T20:00:21.913Z,10.67
2023-05-02T20:02:51.333Z,10.66
2023-05-02T20:05:19.434Z,10.65
2023-05-02T20:07:47.179Z,10.64
2023-05-02T20:10:14.831Z,10.63
2023-05-02T20:12:44.729Z,10.62
2023-05-02T20:15:13.774Z,10.59
2023-05-02T20:17:41.521Z,10.58
2023-05-02T20:20:11.344Z,10.56
2023-05-02T20:22:39.863Z,10.53
2023-05-02T20:25:08.066Z,10.51
2023-05-02T20:27:35.576Z,10.50
2023-05-02T20:30:03.353Z,10.47
2023-05-02T20:32:32.498Z,10.43
2023-05-02T20:35:00.016Z,10.40
2023-05-02T20:37:27.620Z,10.37
2023-05-02T20:39:55.114Z,10.34
2023-05-02T20:42:24.286Z,10.29
2023-05-02T20:44:55.772Z,10.26
2023-05-02T20:47:23.350Z,10.23
2023-05-02T20:49:52.306Z,10.20
2023-05-02T20:52:19.947Z,10.17
2023-05-02T20:54:47.703Z,10.16
2023-05-02T20:57:15.542Z,10.12
2023-05-02T20:59:43.664Z,10.09
2023-05-02T21:02:11.615Z,10.07
2023-05-02T21:04:39.195Z,10.05
2023-05-02T21:07:08.145Z,10.02
2023-05-02T21:09:35.710Z,10.00
2023-05-02T21:12:03.376Z,9.97
2023-05-02T21:14:30.884Z,9.96
2023-05-02T21:16:58.402Z,9.92
2023-05-02T21:19:25.979Z,9.91
2023-05-02T21:21:53.469Z,9.89
2023-05-02T21:24:22.381Z,9.84
2023-05-02T21:26:49.913Z,9.81
2023-05-02T21:29:17.427Z,9.77
2023-05-02T21:31:44.911Z,9.75
2023-05-02T21:34:12.446Z,9.72
2023-05-02T21:36:39.997Z,9.70
2023-05-02T21:39:07.686Z,9.67
2023-05-02T21:41:36.606Z,9.64
2023-05-02T21:44:04.426Z,9.62
2023-05-02T21:46:31.891Z,9.60
2023-05-02T21:48:59.433Z,9.58
2023-05-02T21:51:26.973Z,9.55
2023-05-02T21:53:54.712Z,9.52
2023-05-02T21:56:22.260Z,9.50
2023-05-02T21:58:51.333Z,9.47
2023-05-02T22:01:19.245Z,9.45
2023-05-02T22:03:46.898Z,9.42
2023-05-02T22:06:15.151Z,9.39
2023-05-02T22:08:42.886Z,9.36
2023-05-02T22:11:10.572Z,9.34
2023-05-02T22:13:38.134Z,9.31
2023-05-02T22:16:08.040Z,9.30
2023-05-02T22:18:35.719Z,9.26
2023-05-02T22:21:03.698Z,9.25
2023-05-02T22:23:31.467Z,9.23
2023-05-02T22:25:59.552Z,9.20
2023-05-02T22:28:27.108Z,9.18
2023-05-02T22:30:54.807Z,9.14
2023-05-02T22:33:23.760Z,9.12
2023-05-02T22:35:51.365Z,9.10
2023-05-02T22:38:20.381Z,9.06
2023-05-02T22:40:47.868Z,9.02
2023-05-02T22:43:15.722Z,8.97
2023-05-02T22:45:43.206Z,8.91
2023-05-02T22:48:10.691Z,8.89
2023-05-02T22:50:40.081Z,8.86
2023-05-02T22:53:09.387Z,8.83
2023-05-02T22:55:37.897Z,8.80
2023-05-02T22:58:05.388Z,8.73
2023-05-02T23:00:33.083Z,8.68
2023-05-02T23:03:00.712Z,8.63
2023-05-02T23:05:29.312Z,8.60
2023-05-02T23:07:58.175Z,8.56
2023-05-02T23:10:25.790Z,8.55
2023-05-02T23:12:53.322Z,8.51
2023-05-02T23:15:20.926Z,8.49
2023-05-02T23:17:48.621Z,8.46
2023-05-02T23:20:19.537Z,8.43
2023-05-02T23:22:48.918Z,8.42
2023-05-02T23:25:17.800Z,8.39
2023-05-02T23:27:45.680Z,8.38
2023-05-02T23:30:13.330Z,8.35
2023-05-02T23:32:40.957Z,8.33
2023-05-02T23:35:08.963Z,8.30
2023-05-02T23:37:36.534Z,8.29
2023-05-02T23:40:04.794Z,8.28
2023-05-02T23:42:34.320Z,8.27
2023-05-02T23:45:01.820Z,8.23
2023-05-02T23:47:29.354Z,8.22
2023-05-02T23:49:57.132Z,8.18
2023-05-02T23:52:24.713Z,8.15
2023-05-02T23:54:52.592Z,8.11
2023-05-02T23:57:20.040Z,8.07
2023-05-02T23:59:49.039Z,8.05
